createdAt,value
2019-04-11T00:01:32.537Z,4.97
2019-04-11T00:03:51.466Z,4.70
2019-04-11T00:06:19.788Z,5.42
2019-04-11T00:08:48.193Z,5.40
2019-04-11T00:11:17.464Z,5.70
2019-04-11T00:13:45.945Z,5.10
2019-04-11T00:16:15.245Z,4.72
2019-04-11T00:18:43.519Z,4.70
2019-04-11T00:21:12.842Z,4.40
2019-04-11T00:23:41.191Z,4.60
2019-04-11T00:26:09.502Z,4.62
2019-04-11T00:28:38.063Z,4.35
2019-04-11T00:31:06.429Z,4.60
2019-04-11T00:33:34.667Z,4.92
2019-04-11T00:36:04.108Z,4.33
2019-04-11T00:38:32.627Z,4.70
2019-04-11T00:41:01.662Z,4.67
2019-04-11T00:43:36.802Z,4.70
2019-04-11T00:46:01.496Z,4.17
2019-04-11T00:48:30.226Z,4.70
2019-04-11T00:50:59.317Z,4.25
2019-04-11T00:53:27.844Z,4.78
2019-04-11T00:55:56.141Z,4.50
2019-04-11T00:58:25.561Z,4.67
2019-04-11T01:00:55.336Z,4.50
2019-04-11T01:03:24.281Z,4.35
2019-04-11T01:05:53.999Z,4.50
2019-04-11T01:08:23.965Z,5.03
2019-04-11T01:10:52.267Z,4.40
2019-04-11T01:13:20.960Z,4.60
2019-04-11T01:16:07.013Z,4.60
2019-04-11T01:18:36.190Z,4.53
2019-04-11T01:21:04.557Z,5.12
2019-04-11T01:23:33.242Z,4.80
2019-04-11T01:26:01.621Z,4.90
2019-04-11T01:28:31.005Z,4.80
2019-04-11T01:31:01.124Z,4.55
2019-04-11T01:33:29.712Z,5.20
2019-04-11T01:35:57.979Z,4.87
2019-04-11T01:38:26.608Z,4.60
2019-04-11T01:40:56.091Z,4.83
2019-04-11T01:43:24.385Z,5.00
2019-04-11T01:45:53.591Z,4.58
2019-04-11T01:48:23.785Z,4.60
2019-04-11T01:50:52.071Z,4.40
2019-04-11T01:53:20.719Z,4.12
2019-04-11T01:55:50.437Z,4.67
2019-04-11T01:58:18.797Z,5.13
2019-04-11T02:00:50.815Z,4.75
2019-04-11T02:03:21.195Z,5.12
2019-04-11T02:05:49.591Z,4.97
2019-04-11T02:08:17.890Z,5.10
2019-04-11T02:10:46.565Z,4.80
2019-04-11T02:13:15.399Z,4.70
2019-04-11T02:15:44.214Z,5.12
2019-04-11T02:18:13.111Z,4.53
2019-04-11T02:20:41.376Z,5.30
2019-04-11T02:23:21.456Z,4.58
2019-04-11T02:26:10.076Z,4.60
2019-04-11T02:28:40.990Z,5.20
2019-04-11T02:31:11.551Z,5.67
2019-04-11T02:33:41.408Z,4.87
2019-04-11T02:36:11.755Z,4.87
2019-04-11T02:38:41.264Z,4.60
2019-04-11T02:41:10.606Z,4.90
2019-04-11T02:43:42.139Z,4.70
2019-04-11T02:46:19.851Z,5.17
2019-04-11T02:48:40.660Z,5.50
2019-04-11T02:51:09.848Z,5.30
2019-04-11T02:53:38.937Z,4.78
2019-04-11T02:56:09.317Z,5.03
2019-04-11T02:58:39.087Z,5.08
2019-04-11T03:01:09.591Z,5.28
2019-04-11T03:03:39.420Z,5.22
2019-04-11T03:06:09.247Z,5.05
2019-04-11T03:08:38.796Z,5.35
2019-04-11T03:11:10.676Z,4.60
2019-04-11T03:13:38.440Z,5.20
2019-04-11T03:16:23.804Z,5.10
2019-04-11T03:18:55.010Z,5.10
2019-04-11T03:21:13.771Z,4.90
2019-04-11T03:23:39.501Z,4.70
2019-04-11T03:26:09.763Z,5.12
2019-04-11T03:28:38.925Z,5.60
2019-04-11T03:31:42.259Z,4.70
2019-04-11T03:39:02.518Z,5.40
2019-04-11T03:41:25.291Z,5.30
2019-04-11T03:43:50.864Z,6.40
2019-04-11T03:46:29.202Z,6.85
2019-04-11T03:48:53.369Z,6.45
2019-04-11T03:51:11.597Z,5.87
2019-04-11T03:53:41.157Z,5.67
2019-04-11T03:56:12.007Z,5.25
2019-04-11T03:58:41.797Z,5.67
2019-04-11T04:01:11.601Z,4.90
2019-04-11T04:03:42.400Z,5.12
2019-04-11T04:06:10.774Z,5.50
2019-04-11T04:08:39.266Z,5.17
2019-04-11T04:11:12.550Z,5.00
2019-04-11T04:13:47.604Z,5.12
2019-04-11T04:16:40.361Z,5.67
2019-04-11T04:19:22.680Z,5.35
2019-04-11T04:21:55.179Z,5.70
2019-04-11T04:24:37.896Z,4.80
2019-04-11T04:27:07.032Z,5.30
2019-04-11T04:29:37.030Z,5.45
2019-04-11T04:32:05.980Z,5.40
2019-04-11T04:34:36.057Z,5.67
2019-04-11T04:37:05.897Z,6.30
2019-04-11T04:39:37.027Z,7.40
2019-04-11T04:42:12.629Z,5.30
2019-04-11T04:44:35.764Z,5.72
2019-04-11T04:47:13.630Z,5.47
2019-04-11T04:49:34.557Z,5.45
2019-04-11T04:52:05.918Z,5.12
2019-04-11T04:54:36.147Z,6.17
2019-04-11T04:57:05.028Z,5.87
2019-04-11T04:59:34.127Z,5.97
2019-04-11T05:02:03.917Z,5.72
2019-04-11T05:04:33.747Z,5.80
2019-04-11T05:07:03.234Z,5.87
2019-04-11T05:09:32.060Z,6.20
2019-04-11T05:12:01.414Z,6.30
2019-04-11T05:14:31.440Z,6.10
2019-04-11T05:17:00.450Z,5.50
2019-04-11T05:19:29.953Z,6.03
2019-04-11T05:21:59.774Z,6.00
2019-04-11T05:24:28.517Z,6.15
2019-04-11T05:26:57.880Z,6.30
2019-04-11T05:29:27.187Z,5.80
2019-04-11T05:31:56.668Z,6.37
2019-04-11T05:34:25.853Z,6.40
2019-04-11T05:36:55.211Z,5.95
2019-04-11T05:39:23.995Z,6.30
2019-04-11T05:41:52.294Z,7.17
2019-04-11T05:44:20.967Z,6.08
2019-04-11T05:46:55.815Z,5.78
2019-04-11T05:49:22.827Z,7.10
2019-04-11T05:51:58.137Z,5.90
2019-04-11T05:54:28.109Z,5.90
2019-04-11T05:56:59.562Z,6.60
2019-04-11T05:59:30.602Z,5.90
2019-04-11T06:02:10.923Z,6.60
2019-04-11T06:04:40.981Z,7.10
2019-04-11T06:07:12.768Z,6.80
2019-04-11T06:09:44.072Z,6.40
2019-04-11T06:12:30.274Z,6.23
2019-04-11T06:15:06.218Z,6.30
2019-04-11T06:17:34.499Z,6.57
2019-04-11T06:20:08.247Z,7.40
2019-04-11T06:22:38.528Z,6.80
2019-04-11T06:25:23.615Z,6.73
2019-04-11T06:27:55.791Z,6.50
2019-04-11T06:30:26.382Z,6.95
2019-04-11T06:33:12.240Z,6.60
2019-04-11T06:35:52.248Z,7.05
2019-04-11T06:38:22.662Z,7.08
2019-04-11T06:40:58.364Z,6.00
2019-04-11T06:43:44.535Z,6.60
2019-04-11T06:46:18.730Z,6.30
2019-04-11T06:48:55.910Z,7.20
2019-04-11T06:51:26.123Z,6.42
2019-04-11T06:54:12.743Z,7.58
2019-04-11T06:56:45.508Z,6.65
2019-04-11T06:59:16.389Z,6.27
2019-04-11T07:01:46.016Z,6.60
2019-04-11T07:04:15.954Z,8.20
2019-04-11T07:06:46.039Z,6.85
2019-04-11T07:09:16.705Z,7.40
2019-04-11T07:11:48.409Z,6.90
2019-04-11T07:14:24.788Z,7.53
2019-04-11T07:17:13.453Z,7.45
2019-04-11T07:20:00.123Z,7.50
2019-04-11T07:22:46.710Z,7.47
2019-04-11T07:25:22.610Z,7.22
2019-04-11T07:27:53.221Z,7.25
2019-04-11T07:30:39.699Z,7.55
2019-04-11T07:33:26.714Z,7.30
2019-04-11T07:36:14.543Z,7.85
2019-04-11T07:38:59.888Z,7.53
2019-04-11T07:41:39.935Z,7.15
2019-04-11T07:44:10.956Z,8.07
2019-04-11T07:46:58.241Z,7.42
2019-04-11T07:49:35.046Z,7.87
2019-04-11T07:52:06.722Z,7.65
2019-04-11T07:54:35.442Z,7.53
2019-04-11T07:57:05.523Z,8.00
2019-04-11T07:59:37.884Z,8.10
2019-04-11T08:02:08.792Z,8.35
2019-04-11T08:04:55.624Z,8.15
2019-04-11T08:07:42.515Z,8.08
2019-04-11T08:10:16.224Z,7.90
2019-04-11T08:12:46.181Z,8.48
2019-04-11T08:15:34.211Z,8.00
2019-04-11T08:18:14.622Z,7.95
2019-04-11T08:20:57.454Z,8.70
2019-04-11T08:23:27.699Z,8.20
2019-04-11T08:26:14.043Z,8.30
2019-04-11T08:28:43.503Z,7.90
2019-04-11T08:31:22.000Z,8.25
2019-04-11T08:33:53.043Z,9.43
2019-04-11T08:36:24.042Z,8.40
2019-04-11T08:38:53.026Z,8.23
2019-04-11T08:41:23.237Z,8.90
2019-04-11T08:43:51.665Z,8.60
2019-04-11T08:46:22.615Z,8.60
2019-04-11T08:49:09.795Z,8.88
2019-04-11T08:51:39.121Z,8.08
2019-04-11T08:54:25.819Z,8.38
2019-04-11T08:56:55.662Z,8.60
2019-04-11T08:59:31.341Z,8.68
2019-04-11T09:02:00.404Z,8.30
2019-04-11T09:04:46.408Z,8.90
2019-04-11T09:07:17.020Z,8.80
2019-04-11T09:10:04.106Z,8.95
2019-04-11T09:12:32.418Z,8.58
2019-04-11T09:15:05.399Z,8.65
2019-04-11T09:17:36.558Z,9.30
2019-04-11T09:20:24.720Z,8.85
2019-04-11T09:22:55.465Z,9.40
2019-04-11T09:25:41.633Z,9.70
2019-04-11T09:28:18.000Z,9.07
2019-04-11T09:30:57.090Z,8.60
2019-04-11T09:33:39.710Z,9.10
2019-04-11T09:36:29.163Z,9.10
2019-04-11T09:39:08.863Z,8.95
2019-04-11T09:41:55.032Z,8.93
2019-04-11T09:44:24.993Z,8.83
2019-04-11T09:47:01.360Z,8.80
2019-04-11T09:49:37.683Z,8.23
2019-04-11T09:52:08.764Z,8.40
2019-04-11T09:54:54.682Z,8.78
2019-04-11T09:57:30.203Z,8.50
2019-04-11T10:00:12.364Z,9.88
2019-04-11T10:02:48.331Z,8.40
2019-04-11T10:05:22.366Z,9.30
2019-04-11T10:07:52.665Z,8.57
2019-04-11T10:10:28.917Z,8.73
2019-04-11T10:13:18.620Z,8.90
2019-04-11T10:15:51.609Z,8.80
2019-04-11T10:18:36.576Z,9.10
2019-04-11T10:21:01.279Z,8.70
2019-04-11T10:23:32.567Z,8.85
2019-04-11T10:26:01.462Z,8.43
2019-04-11T10:28:31.466Z,9.00
2019-04-11T10:31:10.653Z,8.08
2019-04-11T10:33:50.022Z,8.80
2019-04-11T10:36:23.145Z,8.55
2019-04-11T10:39:09.696Z,8.70
2019-04-11T10:41:40.042Z,9.33
2019-04-11T10:44:09.664Z,7.60
2019-04-11T10:46:56.331Z,7.80
2019-04-11T10:49:30.387Z,7.80
2019-04-11T10:52:00.440Z,7.58
2019-04-11T10:54:31.037Z,7.97
2019-04-11T10:57:05.599Z,7.22
2019-04-11T10:59:35.654Z,7.92
2019-04-11T11:02:06.646Z,7.20
2019-04-11T11:04:39.010Z,7.58
2019-04-11T11:07:10.188Z,7.40
2019-04-11T11:09:42.040Z,7.20
2019-04-11T11:12:21.296Z,7.80
2019-04-11T11:15:07.207Z,7.53
2019-04-11T11:18:20.506Z,6.53
2019-04-11T11:20:39.080Z,6.62
2019-04-11T11:23:21.128Z,7.12
2019-04-11T11:25:57.036Z,7.80
2019-04-11T11:28:26.991Z,7.90
2019-04-11T11:31:03.202Z,8.10
2019-04-11T11:33:34.108Z,8.23
2019-04-11T11:36:21.365Z,8.23
2019-04-11T11:38:52.298Z,7.67
2019-04-11T11:41:38.979Z,8.03
2019-04-11T11:44:09.736Z,8.40
2019-04-11T11:46:59.861Z,8.40
2019-04-11T11:49:41.783Z,8.23
2019-04-11T11:52:03.713Z,8.50
2019-04-11T11:54:33.666Z,8.18
2019-04-11T11:57:04.591Z,8.33
2019-04-11T11:59:48.205Z,9.00
2019-04-11T12:02:28.470Z,8.60
2019-04-11T12:05:02.492Z,9.25
2019-04-11T12:07:37.799Z,9.10
2019-04-11T12:10:17.377Z,8.75
2019-04-11T12:13:08.023Z,8.90
2019-04-11T12:15:53.332Z,8.38
2019-04-11T12:18:26.747Z,8.80
2019-04-11T12:21:05.810Z,8.33
2019-04-11T12:23:46.646Z,8.93
2019-04-11T12:26:07.628Z,9.53
2019-04-11T12:28:50.030Z,9.80
2019-04-11T12:31:19.506Z,9.23
2019-04-11T12:34:06.210Z,8.80
2019-04-11T12:36:37.049Z,9.28
2019-04-11T12:39:09.060Z,8.60
2019-04-11T12:41:39.278Z,8.80
2019-04-11T12:44:20.835Z,9.30
2019-04-11T12:46:53.634Z,9.20
2019-04-11T12:49:26.295Z,9.83
2019-04-11T12:52:12.301Z,9.00
2019-04-11T12:54:42.383Z,9.10
2019-04-11T12:57:28.492Z,9.68
2019-04-11T13:00:01.173Z,8.65
2019-04-11T13:02:47.747Z,9.00
2019-04-11T13:05:17.726Z,8.70
2019-04-11T13:07:47.647Z,9.15
2019-04-11T13:10:16.529Z,9.10
2019-04-11T13:13:01.925Z,8.60
2019-04-11T13:15:31.866Z,9.38
2019-04-11T13:18:01.829Z,9.43
2019-04-11T13:20:43.544Z,8.50
2019-04-11T13:23:31.894Z,8.83
2019-04-11T13:26:10.453Z,9.55
2019-04-11T13:28:40.329Z,9.60
2019-04-11T13:31:16.580Z,8.80
2019-04-11T13:33:45.073Z,9.05
2019-04-11T13:36:27.056Z,9.28
2019-04-11T13:38:55.643Z,9.20
2019-04-11T13:41:31.374Z,9.10
2019-04-11T13:44:00.507Z,8.90
2019-04-11T13:46:36.607Z,9.20
2019-04-11T13:49:23.431Z,9.88
2019-04-11T13:52:02.541Z,9.40
2019-04-11T13:54:32.474Z,9.33
2019-04-11T13:57:02.737Z,9.45
2019-04-11T13:59:35.271Z,8.80
2019-04-11T14:02:09.116Z,9.20
2019-04-11T14:04:57.796Z,9.15
2019-04-11T14:07:30.309Z,9.07
2019-04-11T14:10:09.275Z,9.08
2019-04-11T14:12:38.549Z,9.30
2019-04-11T14:15:11.943Z,8.13
2019-04-11T14:17:45.048Z,8.50
2019-04-11T14:20:29.195Z,9.18
2019-04-11T14:23:05.347Z,8.90
2019-04-11T14:25:48.085Z,9.05
2019-04-11T14:28:18.035Z,8.70
2019-04-11T14:30:51.745Z,9.05
2019-04-11T14:33:18.378Z,8.55
2019-04-11T14:36:00.334Z,8.13
2019-04-11T14:38:32.041Z,8.75
2019-04-11T14:41:09.823Z,8.40
2019-04-11T14:43:43.815Z,7.90
2019-04-11T14:46:15.859Z,7.65
2019-04-11T14:48:48.820Z,8.10
2019-04-11T14:51:27.867Z,8.08
2019-04-11T14:54:00.622Z,7.85
2019-04-11T14:56:33.394Z,9.07
2019-04-11T14:59:23.889Z,8.10
2019-04-11T15:01:53.226Z,8.13
2019-04-11T15:04:26.230Z,8.30
2019-04-11T15:06:56.186Z,7.80
2019-04-11T15:09:41.162Z,8.63
2019-04-11T15:12:17.835Z,9.00
2019-04-11T15:14:51.936Z,8.65
2019-04-11T15:17:21.909Z,8.15
2019-04-11T15:20:02.656Z,8.13
2019-04-11T15:22:50.738Z,7.90
2019-04-11T15:25:20.679Z,7.90
2019-04-11T15:27:56.361Z,8.10
2019-04-11T15:30:38.450Z,8.05
2019-04-11T15:33:24.917Z,8.43
2019-04-11T15:35:58.595Z,7.70
2019-04-11T15:38:45.499Z,8.10
2019-04-11T15:41:13.822Z,8.70
2019-04-11T15:43:59.700Z,7.70
2019-04-11T15:46:29.782Z,7.80
2019-04-11T15:49:21.893Z,7.90
2019-04-11T15:51:47.775Z,7.30
2019-04-11T15:54:17.750Z,7.50
2019-04-11T15:56:53.398Z,7.80
2019-04-11T15:59:38.745Z,7.08
2019-04-11T16:02:09.015Z,7.80
2019-04-11T16:04:47.807Z,7.20
2019-04-11T16:07:37.581Z,7.40
2019-04-11T16:10:07.237Z,7.67
2019-04-11T16:12:55.654Z,7.47
2019-04-11T16:15:25.892Z,7.50
2019-04-11T16:17:57.932Z,7.10
2019-04-11T16:20:26.160Z,6.92
2019-04-11T16:22:56.109Z,7.83
2019-04-11T16:25:24.422Z,7.58
2019-04-11T16:28:10.924Z,7.50
2019-04-11T16:30:43.616Z,7.70
2019-04-11T16:33:13.543Z,7.47
2019-04-11T16:35:49.766Z,7.37
2019-04-11T16:38:29.012Z,6.90
2019-04-11T16:41:07.852Z,6.70
2019-04-11T16:43:37.561Z,7.00
2019-04-11T16:46:24.580Z,7.28
2019-04-11T16:48:55.650Z,6.73
2019-04-11T16:51:30.690Z,7.08
2019-04-11T16:53:52.574Z,6.67
2019-04-11T16:56:21.359Z,7.10
2019-04-11T16:58:50.287Z,6.87
2019-04-11T17:01:20.751Z,7.20
2019-04-11T17:03:48.744Z,6.40
2019-04-11T17:06:36.913Z,6.70
2019-04-11T17:09:14.235Z,6.70
2019-04-11T17:11:42.519Z,7.67
2019-04-11T17:14:11.978Z,7.22
2019-04-11T17:16:40.305Z,7.62
2019-04-11T17:19:08.623Z,7.20
2019-04-11T17:21:43.126Z,7.85
2019-04-11T17:24:07.317Z,7.12
2019-04-11T17:26:35.622Z,8.35
2019-04-11T17:29:03.949Z,8.40
2019-04-11T17:31:33.213Z,7.20
2019-04-11T17:34:02.425Z,7.35
2019-04-11T17:36:33.518Z,7.50
2019-04-11T17:39:01.100Z,7.57
2019-04-11T17:41:29.415Z,7.50
2019-04-11T17:43:57.719Z,7.80
2019-04-11T17:46:26.927Z,8.30
2019-04-11T17:48:56.122Z,8.20
2019-04-11T17:51:24.525Z,7.40
2019-04-11T17:53:54.985Z,7.23
2019-04-11T17:56:24.816Z,7.85
2019-04-11T17:58:52.847Z,7.37
2019-04-11T18:01:21.214Z,7.40
2019-04-11T18:03:49.612Z,7.70
2019-04-11T18:06:18.012Z,7.80
2019-04-11T18:08:46.724Z,7.40
2019-04-11T18:11:15.526Z,7.70
2019-04-11T18:13:43.842Z,7.55
2019-04-11T18:16:12.161Z,7.70
2019-04-11T18:18:40.480Z,7.62
2019-04-11T18:21:08.864Z,7.70
2019-04-11T18:23:37.519Z,7.90
2019-04-11T18:26:05.968Z,7.03
2019-04-11T18:28:34.253Z,7.70
2019-04-11T18:31:02.592Z,7.80
2019-04-11T18:33:32.295Z,7.47
2019-04-11T18:36:02.212Z,7.40
2019-04-11T18:38:32.062Z,7.05
2019-04-11T18:41:01.054Z,7.00
2019-04-11T18:43:29.388Z,7.47
2019-04-11T18:45:57.684Z,6.65
2019-04-11T18:48:26.511Z,7.13
2019-04-11T18:50:54.860Z,8.38
2019-04-11T18:53:23.177Z,8.33
2019-04-11T18:55:51.483Z,7.72
2019-04-11T18:58:19.781Z,8.13
2019-04-11T19:00:48.427Z,7.97
2019-04-11T19:03:17.034Z,7.80
2019-04-11T19:05:45.688Z,8.15
2019-04-11T19:08:13.976Z,8.20
2019-04-11T19:10:42.917Z,8.00
2019-04-11T19:13:12.329Z,7.80
2019-04-11T19:15:40.641Z,8.20
2019-04-11T19:18:09.011Z,8.73
2019-04-11T19:20:37.330Z,7.50
2019-04-11T19:23:07.638Z,8.20
2019-04-11T19:25:35.640Z,9.38
2019-04-11T19:28:03.941Z,9.28
2019-04-11T19:30:32.258Z,7.45
2019-04-11T19:33:00.569Z,7.17
2019-04-11T19:35:28.877Z,7.30
2019-04-11T19:37:57.877Z,6.80
2019-04-11T19:40:26.474Z,6.97
2019-04-11T19:42:54.798Z,6.50
2019-04-11T19:45:23.376Z,7.20
2019-04-11T19:47:52.255Z,6.85
2019-04-11T19:50:21.221Z,8.00
2019-04-11T19:52:49.664Z,8.03
2019-04-11T19:55:34.500Z,7.72
2019-04-11T19:58:01.660Z,7.07
2019-04-11T20:00:30.501Z,7.50
2019-04-11T20:02:58.800Z,7.40
2019-04-11T20:05:27.176Z,7.05
2019-04-11T20:07:55.535Z,6.83
2019-04-11T20:10:23.840Z,7.17
2019-04-11T20:12:52.172Z,6.75
2019-04-11T20:15:20.771Z,6.30
2019-04-11T20:17:52.036Z,6.20
2019-04-11T20:20:19.678Z,7.25
2019-04-11T20:22:58.410Z,6.80
2019-04-11T20:25:17.998Z,6.53
2019-04-11T20:27:48.161Z,6.35
2019-04-11T20:30:16.540Z,6.87
2019-04-11T20:32:44.827Z,7.22
2019-04-11T20:35:13.641Z,6.80
2019-04-11T20:37:44.600Z,7.00
2019-04-11T20:40:12.432Z,7.00
2019-04-11T20:42:40.969Z,6.53
2019-04-11T20:45:09.523Z,6.55
2019-04-11T20:47:37.821Z,6.50
2019-04-11T20:50:07.545Z,6.60
2019-04-11T20:52:36.158Z,6.50
2019-04-11T20:55:08.979Z,6.97
2019-04-11T20:57:35.978Z,7.42
2019-04-11T21:00:06.224Z,7.08
2019-04-11T21:02:34.816Z,7.10
2019-04-11T21:05:03.119Z,7.00
2019-04-11T21:07:32.518Z,6.10
2019-04-11T21:10:03.722Z,6.12
2019-04-11T21:12:31.189Z,6.45
2019-04-11T21:14:59.777Z,6.00
2019-04-11T21:17:28.061Z,6.05
2019-04-11T21:19:56.376Z,5.20
2019-04-11T21:22:24.820Z,6.00
2019-04-11T21:24:53.275Z,5.45
2019-04-11T21:27:21.595Z,5.60
2019-04-11T21:29:49.903Z,5.30
2019-04-11T21:32:18.544Z,5.70
2019-04-11T21:34:47.112Z,5.45
2019-04-11T21:37:15.424Z,5.80
2019-04-11T21:39:43.736Z,5.65
2019-04-11T21:42:12.033Z,6.03
2019-04-11T21:44:40.361Z,6.00
2019-04-11T21:47:09.008Z,5.50
2019-04-11T21:49:37.766Z,5.70
2019-04-11T21:52:06.089Z,5.78
2019-04-11T21:54:34.379Z,6.25
2019-04-11T21:57:03.032Z,5.53
2019-04-11T21:59:31.346Z,6.20
2019-04-11T22:01:59.813Z,6.20
2019-04-11T22:04:31.034Z,6.17
2019-04-11T22:07:00.671Z,7.15
2019-04-11T22:09:28.632Z,6.70
2019-04-11T22:11:56.942Z,6.60
2019-04-11T22:14:25.702Z,7.03
2019-04-11T22:16:55.050Z,7.33
2019-04-11T22:19:23.763Z,6.80
2019-04-11T22:21:52.048Z,6.83
2019-04-11T22:24:20.345Z,5.70
2019-04-11T22:26:50.627Z,5.50
2019-04-11T22:29:18.704Z,5.70
2019-04-11T22:31:47.010Z,5.30
2019-04-11T22:34:29.080Z,5.17
2019-04-11T22:36:59.603Z,5.10
2019-04-11T22:39:28.950Z,5.20
2019-04-11T22:41:57.509Z,5.30
2019-04-11T22:44:25.847Z,4.97
2019-04-11T22:46:54.136Z,4.90
2019-04-11T22:49:22.441Z,4.90
2019-04-11T22:51:50.738Z,5.15
2019-04-11T22:54:19.316Z,4.80
2019-04-11T22:56:47.611Z,4.92
2019-04-11T22:59:15.935Z,5.13
2019-04-11T23:01:46.923Z,4.87
2019-04-11T23:04:17.152Z,4.90
2019-04-11T23:06:47.205Z,4.75
2019-04-11T23:09:16.591Z,5.10
2019-04-11T23:11:45.377Z,5.00
2019-04-11T23:14:15.790Z,4.33
2019-04-11T23:16:44.211Z,5.22
2019-04-11T23:19:14.357Z,4.80
2019-04-11T23:21:42.769Z,4.50
2019-04-11T23:24:12.248Z,4.85
2019-04-11T23:26:40.699Z,4.75
2019-04-11T23:29:08.997Z,4.50
2019-04-11T23:31:37.323Z,4.42
2019-04-11T23:34:05.614Z,4.40
2019-04-11T23:36:33.929Z,4.60
2019-04-11T23:39:02.224Z,4.10
2019-04-11T23:41:30.546Z,4.17
2019-04-11T23:43:58.835Z,4.90
2019-04-11T23:46:27.437Z,4.20
2019-04-11T23:48:55.761Z,4.50
2019-04-11T23:51:26.340Z,4.55
2019-04-11T23:53:54.052Z,3.90
2019-04-11T23:56:22.336Z,4.35
2019-04-11T23:58:50.649Z,4.20
